Etusivu
METAR-TAF:

METAR-TAF

Lentoasemat :

Chengdu Shuangliun kansainvälinen lentoasema

Chengdu, Kiina

Leveyspiiri: 30-40N, Pituuspiiri: 104-01E, korkeus merenpinnasta: 508 m

Tämänhetkinen sää

Tämä raportti tehtiin 47 minuuttia sitten, kello 14.00 UTC
tyyntä
Lämpötila 13°C
Kosteus 82%
Ilmanpaine 1032 hPa
Näkyvyys 10 km tai enemmän
ei pilviä alle 1500 m:ssä eikä cumulonimbus-pilviä

METAR: ZUUU 131400Z 00000MPS CAVOK 13/10 Q1032 NOSIG

Aika: 22:47 (14:47 UTC)

Sääennuste

Tämä raportti tehtiin 6 tuntia ja 41 minuuttia sitten, kello 08.06 UTC
Ennuste voimassa 13. päivästä klo 12 UTC - 14. päivään klo 12 UTC
Tuuli 6 kn pohjoisesta/koillisesta
Näkyvyys: 5000 m
Hajanaisia pilviä 5000 ft:n korkeudessa
utua
Tulossa
13. päivästä klo 22 UTC - 13. päivään klo 23 UTC
Näkyvyys: 2300 m
Tulossa
14. päivästä klo 01 UTC - 14. päivään klo 02 UTC
Näkyvyys: 5000 m

TAF: ZUUU 130806Z 1312/1412 02003MPS 5000 BR SCT050 TX18/1407Z TN13/1321Z BECMG 1322/1323 2300 BECMG 1401/1402 5000

Säähavainnot ja -ennusteet yli 4000 lentoasemalta (METAR- ja TAF-raportit).

Käytössä olevat sääasemat on merkitty karttaan keltaisilla ja punaisilla pisteillä.

Aseta hiiri pisteen päälle nähdäksesi sääaseman nimen.

Klikkaa sitten nähdäksesi säähavainnot ja -ennusteet.

Kartan vaihtaminen: klikkaa mustalla rastilla varustettuja vihreitä pisteitä, niin voit zoomata sisään; viivalla varustettua vihreää pistettä, niin voit zoomata ulos tai vihreitä nuolia, niin pääset viereisille kartoille.


METAR-TAF: